sensor_id;sensor_type;location;lat;lon;timestamp;temperature;humidity
54264;DHT22;40178;53.042;6.406;2022-11-15T00:00:04;6.60;99.90
54264;DHT22;40178;53.042;6.406;2022-11-15T00:02:29;6.50;99.90
54264;DHT22;40178;53.042;6.406;2022-11-15T00:04:55;6.50;99.90
54264;DHT22;40178;53.042;6.406;2022-11-15T00:07:20;6.50;99.90
54264;DHT22;40178;53.042;6.406;2022-11-15T00:09:46;6.50;99.90
54264;DHT22;40178;53.042;6.406;2022-11-15T00:12:11;6.60;99.90
54264;DHT22;40178;53.042;6.406;2022-11-15T00:14:37;6.70;99.90
54264;DHT22;40178;53.042;6.406;2022-11-15T00:17:02;6.70;99.90
54264;DHT22;40178;53.042;6.406;2022-11-15T00:19:28;6.70;99.90
54264;DHT22;40178;53.042;6.406;2022-11-15T00:21:53;6.80;99.90
54264;DHT22;40178;53.042;6.406;2022-11-15T00:24:19;6.90;99.90
54264;DHT22;40178;53.042;6.406;2022-11-15T00:26:44;6.90;99.90
54264;DHT22;40178;53.042;6.406;2022-11-15T00:29:10;7.00;99.90
54264;DHT22;40178;53.042;6.406;2022-11-15T00:31:35;7.00;99.90
54264;DHT22;40178;53.042;6.406;2022-11-15T00:34:01;6.90;99.90
54264;DHT22;40178;53.042;6.406;2022-11-15T00:36:26;7.00;99.90
54264;DHT22;40178;53.042;6.406;2022-11-15T00:38:52;7.00;99.90
54264;DHT22;40178;53.042;6.406;2022-11-15T00:41:17;7.10;99.90
54264;DHT22;40178;53.042;6.406;2022-11-15T00:43:43;7.00;99.90
54264;DHT22;40178;53.042;6.406;2022-11-15T00:46:09;7.10;99.90
54264;DHT22;40178;53.042;6.406;2022-11-15T00:48:35;7.10;99.90
54264;DHT22;40178;53.042;6.406;2022-11-15T00:51:01;7.10;99.90
54264;DHT22;40178;53.042;6.406;2022-11-15T00:53:27;7.10;99.90
54264;DHT22;40178;53.042;6.406;2022-11-15T00:55:52;7.10;99.90
54264;DHT22;40178;53.042;6.406;2022-11-15T00:58:18;7.20;99.90
54264;DHT22;40178;53.042;6.406;2022-11-15T01:00:44;7.10;99.90
54264;DHT22;40178;53.042;6.406;2022-11-15T01:03:10;7.10;99.90
54264;DHT22;40178;53.042;6.406;2022-11-15T01:05:37;7.10;99.90
54264;DHT22;40178;53.042;6.406;2022-11-15T01:08:03;7.10;99.90
54264;DHT22;40178;53.042;6.406;2022-11-15T01:10:29;7.00;99.90
54264;DHT22;40178;53.042;6.406;2022-11-15T01:12:54;7.00;99.90
54264;DHT22;40178;53.042;6.406;2022-11-15T01:15:20;7.00;99.90
54264;DHT22;40178;53.042;6.406;2022-11-15T01:17:46;7.00;99.90
54264;DHT22;40178;53.042;6.406;2022-11-15T01:20:13;7.00;99.90
54264;DHT22;40178;53.042;6.406;2022-11-15T01:22:38;7.00;99.90
54264;DHT22;40178;53.042;6.406;2022-11-15T01:25:04;6.90;99.90
54264;DHT22;40178;53.042;6.406;2022-11-15T01:27:29;6.90;99.90
54264;DHT22;40178;53.042;6.406;2022-11-15T01:29:55;7.00;99.90
54264;DHT22;40178;53.042;6.406;2022-11-15T01:32:20;6.90;99.90
54264;DHT22;40178;53.042;6.406;2022-11-15T01:34:46;6.90;99.90
54264;DHT22;40178;53.042;6.406;2022-11-15T01:37:11;6.90;99.90
54264;DHT22;40178;53.042;6.406;2022-11-15T01:39:37;7.00;99.90
54264;DHT22;40178;53.042;6.406;2022-11-15T01:42:03;6.90;99.90
54264;DHT22;40178;53.042;6.406;2022-11-15T01:44:40;7.00;99.90
54264;DHT22;40178;53.042;6.406;2022-11-15T01:47:19;6.90;99.90
54264;DHT22;40178;53.042;6.406;2022-11-15T01:49:51;6.90;99.90
54264;DHT22;40178;53.042;6.406;2022-11-15T01:52:20;6.90;99.90
54264;DHT22;40178;53.042;6.406;2022-11-15T01:54:48;6.90;99.90
54264;DHT22;40178;53.042;6.406;2022-11-15T01:57:15;6.90;99.90
54264;DHT22;40178;53.042;6.406;2022-11-15T01:59:43;6.90;99.90
54264;DHT22;40178;53.042;6.406;2022-11-15T02:02:10;6.90;99.90
54264;DHT22;40178;53.042;6.406;2022-11-15T02:04:46;6.90;99.90
54264;DHT22;40178;53.042;6.406;2022-11-15T02:07:15;6.80;99.90
54264;DHT22;40178;53.042;6.406;2022-11-15T02:09:42;6.80;99.90
54264;DHT22;40178;53.042;6.406;2022-11-15T02:12:09;6.80;99.90
54264;DHT22;40178;53.042;6.406;2022-11-15T02:14:38;6.80;99.90
54264;DHT22;40178;53.042;6.406;2022-11-15T02:17:08;6.90;99.90
54264;DHT22;40178;53.042;6.406;2022-11-15T02:19:58;6.80;99.90
54264;DHT22;40178;53.042;6.406;2022-11-15T02:31:11;6.80;99.90
54264;DHT22;40178;53.042;6.406;2022-11-15T02:36:44;6.80;99.90
54264;DHT22;40178;53.042;6.406;2022-11-15T02:39:37;6.80;99.90
54264;DHT22;40178;53.042;6.406;2022-11-15T02:42:25;6.80;99.90
54264;DHT22;40178;53.042;6.406;2022-11-15T02:45:17;6.80;99.90
54264;DHT22;40178;53.042;6.406;2022-11-15T02:47:47;6.90;99.90
54264;DHT22;40178;53.042;6.406;2022-11-15T02:50:20;6.90;99.90
54264;DHT22;40178;53.042;6.406;2022-11-15T02:52:48;6.80;99.90
54264;DHT22;40178;53.042;6.406;2022-11-15T02:55:33;6.90;99.90
54264;DHT22;40178;53.042;6.406;2022-11-15T03:00:47;6.90;99.90
54264;DHT22;40178;53.042;6.406;2022-11-15T03:05:58;6.90;99.90
54264;DHT22;40178;53.042;6.406;2022-11-15T03:09:07;6.90;99.90
54264;DHT22;40178;53.042;6.406;2022-11-15T03:11:38;7.00;99.90
54264;DHT22;40178;53.042;6.406;2022-11-15T03:14:24;7.00;99.90
54264;DHT22;40178;53.042;6.406;2022-11-15T03:16:58;6.90;99.90
54264;DHT22;40178;53.042;6.406;2022-11-15T03:19:46;7.00;99.90
54264;DHT22;40178;53.042;6.406;2022-11-15T03:22:16;7.00;99.90
54264;DHT22;40178;53.042;6.406;2022-11-15T03:24:45;7.00;99.90
54264;DHT22;40178;53.042;6.406;2022-11-15T03:27:15;7.10;99.90
54264;DHT22;40178;53.042;6.406;2022-11-15T03:29:48;7.00;99.90
54264;DHT22;40178;53.042;6.406;2022-11-15T03:32:28;7.10;99.90
54264;DHT22;40178;53.042;6.406;2022-11-15T03:35:15;7.00;99.90
54264;DHT22;40178;53.042;6.406;2022-11-15T03:38:07;7.10;99.90
54264;DHT22;40178;53.042;6.406;2022-11-15T03:40:40;7.20;99.90
54264;DHT22;40178;53.042;6.406;2022-11-15T03:43:11;7.20;99.90
54264;DHT22;40178;53.042;6.406;2022-11-15T03:45:56;7.10;99.90
54264;DHT22;40178;53.042;6.406;2022-11-15T03:48:27;7.20;99.90
54264;DHT22;40178;53.042;6.406;2022-11-15T03:50:55;7.20;99.90
54264;DHT22;40178;53.042;6.406;2022-11-15T03:53:21;7.10;99.90
54264;DHT22;40178;53.042;6.406;2022-11-15T03:55:47;7.30;99.90
54264;DHT22;40178;53.042;6.406;2022-11-15T03:58:12;7.20;99.90
54264;DHT22;40178;53.042;6.406;2022-11-15T04:00:38;7.20;99.90
54264;DHT22;40178;53.042;6.406;2022-11-15T04:03:03;7.30;99.90
54264;DHT22;40178;53.042;6.406;2022-11-15T04:05:29;7.30;99.90
54264;DHT22;40178;53.042;6.406;2022-11-15T04:07:54;7.20;99.90
54264;DHT22;40178;53.042;6.406;2022-11-15T04:10:20;7.20;99.90
54264;DHT22;40178;53.042;6.406;2022-11-15T04:12:46;7.40;99.90
54264;DHT22;40178;53.042;6.406;2022-11-15T04:15:21;7.40;99.90
54264;DHT22;40178;53.042;6.406;2022-11-15T04:23:02;7.40;99.90
54264;DHT22;40178;53.042;6.406;2022-11-15T04:25:49;7.50;99.90
54264;DHT22;40178;53.042;6.406;2022-11-15T04:28:16;7.40;99.90
54264;DHT22;40178;53.042;6.406;2022-11-15T04:30:42;7.40;99.90
54264;DHT22;40178;53.042;6.406;2022-11-15T04:33:07;7.50;99.90
54264;DHT22;40178;53.042;6.406;2022-11-15T04:35:33;7.60;99.90
54264;DHT22;40178;53.042;6.406;2022-11-15T04:37:59;7.50;99.90
54264;DHT22;40178;53.042;6.406;2022-11-15T04:40:25;7.60;99.90
54264;DHT22;40178;53.042;6.406;2022-11-15T04:42:51;7.60;99.90
54264;DHT22;40178;53.042;6.406;2022-11-15T04:45:17;7.60;99.90
54264;DHT22;40178;53.042;6.406;2022-11-15T04:47:46;7.60;99.90
54264;DHT22;40178;53.042;6.406;2022-11-15T04:50:13;7.70;99.90
54264;DHT22;40178;53.042;6.406;2022-11-15T04:52:44;7.70;99.90
54264;DHT22;40178;53.042;6.406;2022-11-15T04:55:15;7.70;99.90
54264;DHT22;40178;53.042;6.406;2022-11-15T04:57:40;7.60;99.90
54264;DHT22;40178;53.042;6.406;2022-11-15T05:00:09;7.80;99.90
54264;DHT22;40178;53.042;6.406;2022-11-15T05:02:34;7.80;99.90
54264;DHT22;40178;53.042;6.406;2022-11-15T05:05:19;7.90;99.90
54264;DHT22;40178;53.042;6.406;2022-11-15T05:07:44;7.80;99.90
54264;DHT22;40178;53.042;6.406;2022-11-15T05:10:10;7.80;99.90
54264;DHT22;40178;53.042;6.406;2022-11-15T05:12:36;7.80;99.90
54264;DHT22;40178;53.042;6.406;2022-11-15T05:15:03;8.10;99.90
54264;DHT22;40178;53.042;6.406;2022-11-15T05:17:28;7.90;99.90
54264;DHT22;40178;53.042;6.406;2022-11-15T05:19:54;8.10;99.90
54264;DHT22;40178;53.042;6.406;2022-11-15T05:22:20;8.00;99.90
54264;DHT22;40178;53.042;6.406;2022-11-15T05:24:45;8.00;99.90
54264;DHT22;40178;53.042;6.406;2022-11-15T05:27:11;8.30;99.90
54264;DHT22;40178;53.042;6.406;2022-11-15T05:29:36;8.20;99.90
54264;DHT22;40178;53.042;6.406;2022-11-15T05:32:05;8.30;99.90
54264;DHT22;40178;53.042;6.406;2022-11-15T05:34:31;8.30;99.90
54264;DHT22;40178;53.042;6.406;2022-11-15T05:36:57;8.40;99.90
54264;DHT22;40178;53.042;6.406;2022-11-15T05:39:23;8.50;99.90
54264;DHT22;40178;53.042;6.406;2022-11-15T05:42:27;8.30;99.90
54264;DHT22;40178;53.042;6.406;2022-11-15T05:44:48;8.50;99.90
54264;DHT22;40178;53.042;6.406;2022-11-15T05:47:22;8.50;99.90
54264;DHT22;40178;53.042;6.406;2022-11-15T05:49:50;8.60;99.90
54264;DHT22;40178;53.042;6.406;2022-11-15T05:52:21;8.60;99.90
54264;DHT22;40178;53.042;6.406;2022-11-15T05:54:48;8.50;99.90
54264;DHT22;40178;53.042;6.406;2022-11-15T05:57:14;8.50;99.90
54264;DHT22;40178;53.042;6.406;2022-11-15T05:59:40;8.50;99.90
54264;DHT22;40178;53.042;6.406;2022-11-15T06:02:06;8.50;99.90
54264;DHT22;40178;53.042;6.406;2022-11-15T06:04:32;8.70;99.90
54264;DHT22;40178;53.042;6.406;2022-11-15T06:06:58;8.60;99.90
54264;DHT22;40178;53.042;6.406;2022-11-15T06:09:24;8.70;99.90
54264;DHT22;40178;53.042;6.406;2022-11-15T06:11:49;8.70;99.90
54264;DHT22;40178;53.042;6.406;2022-11-15T06:14:15;8.90;99.90
54264;DHT22;40178;53.042;6.406;2022-11-15T06:16:40;8.70;99.90
54264;DHT22;40178;53.042;6.406;2022-11-15T06:19:06;9.00;99.90
54264;DHT22;40178;53.042;6.406;2022-11-15T06:21:32;8.90;99.90
54264;DHT22;40178;53.042;6.406;2022-11-15T06:23:58;8.90;99.90
54264;DHT22;40178;53.042;6.406;2022-11-15T06:26:24;9.00;99.90
54264;DHT22;40178;53.042;6.406;2022-11-15T06:28:49;8.90;99.90
54264;DHT22;40178;53.042;6.406;2022-11-15T06:31:15;9.10;99.90
54264;DHT22;40178;53.042;6.406;2022-11-15T06:33:41;8.90;99.90
54264;DHT22;40178;53.042;6.406;2022-11-15T06:36:10;9.10;99.90
54264;DHT22;40178;53.042;6.406;2022-11-15T06:38:36;9.20;99.90
54264;DHT22;40178;53.042;6.406;2022-11-15T06:41:05;9.10;99.90
54264;DHT22;40178;53.042;6.406;2022-11-15T06:43:32;9.30;99.90
54264;DHT22;40178;53.042;6.406;2022-11-15T06:45:58;9.10;99.90
54264;DHT22;40178;53.042;6.406;2022-11-15T06:48:25;9.10;99.90
54264;DHT22;40178;53.042;6.406;2022-11-15T06:50:56;9.40;99.90
54264;DHT22;40178;53.042;6.406;2022-11-15T06:53:23;9.30;99.90
54264;DHT22;40178;53.042;6.406;2022-11-15T06:55:48;9.20;99.90
54264;DHT22;40178;53.042;6.406;2022-11-15T06:58:14;9.30;99.90
54264;DHT22;40178;53.042;6.406;2022-11-15T07:00:40;9.20;99.90
54264;DHT22;40178;53.042;6.406;2022-11-15T07:03:06;9.30;99.90
54264;DHT22;40178;53.042;6.406;2022-11-15T07:05:31;9.30;99.90
54264;DHT22;40178;53.042;6.406;2022-11-15T07:07:58;9.50;99.90
54264;DHT22;40178;53.042;6.406;2022-11-15T07:10:25;9.50;99.90
54264;DHT22;40178;53.042;6.406;2022-11-15T07:12:52;9.40;99.90
54264;DHT22;40178;53.042;6.406;2022-11-15T07:15:20;9.40;99.90
54264;DHT22;40178;53.042;6.406;2022-11-15T07:17:46;9.40;99.90
54264;DHT22;40178;53.042;6.406;2022-11-15T07:20:12;9.40;99.90
54264;DHT22;40178;53.042;6.406;2022-11-15T07:22:39;9.60;99.90
54264;DHT22;40178;53.042;6.406;2022-11-15T07:25:05;9.50;99.90
54264;DHT22;40178;53.042;6.406;2022-11-15T07:27:31;9.50;99.90
54264;DHT22;40178;53.042;6.406;2022-11-15T07:29:57;9.60;99.90
54264;DHT22;40178;53.042;6.406;2022-11-15T07:32:22;9.50;99.90
54264;DHT22;40178;53.042;6.406;2022-11-15T07:34:48;9.60;99.90
54264;DHT22;40178;53.042;6.406;2022-11-15T07:37:13;9.80;99.90
54264;DHT22;40178;53.042;6.406;2022-11-15T07:39:39;9.70;99.90
54264;DHT22;40178;53.042;6.406;2022-11-15T07:42:04;9.70;99.90
54264;DHT22;40178;53.042;6.406;2022-11-15T07:44:48;9.90;99.90
54264;DHT22;40178;53.042;6.406;2022-11-15T07:47:14;9.70;99.90
54264;DHT22;40178;53.042;6.406;2022-11-15T07:49:40;9.70;99.90
54264;DHT22;40178;53.042;6.406;2022-11-15T07:52:06;9.80;99.90
54264;DHT22;40178;53.042;6.406;2022-11-15T07:54:31;9.80;99.90
54264;DHT22;40178;53.042;6.406;2022-11-15T07:56:57;9.90;99.90
54264;DHT22;40178;53.042;6.406;2022-11-15T07:59:22;9.90;99.90
54264;DHT22;40178;53.042;6.406;2022-11-15T08:01:48;9.90;99.90
54264;DHT22;40178;53.042;6.406;2022-11-15T08:04:13;10.00;99.90
54264;DHT22;40178;53.042;6.406;2022-11-15T08:06:39;10.10;99.90
54264;DHT22;40178;53.042;6.406;2022-11-15T08:09:05;9.80;99.90
54264;DHT22;40178;53.042;6.406;2022-11-15T08:11:30;10.20;99.90
54264;DHT22;40178;53.042;6.406;2022-11-15T08:16:26;10.20;99.90
54264;DHT22;40178;53.042;6.406;2022-11-15T08:18:52;10.30;99.90
54264;DHT22;40178;53.042;6.406;2022-11-15T08:21:19;10.20;99.90
54264;DHT22;40178;53.042;6.406;2022-11-15T08:23:45;10.10;99.90
54264;DHT22;40178;53.042;6.406;2022-11-15T08:26:11;10.10;99.90
54264;DHT22;40178;53.042;6.406;2022-11-15T08:28:37;10.10;99.90
54264;DHT22;40178;53.042;6.406;2022-11-15T08:31:03;10.20;99.90
54264;DHT22;40178;53.042;6.406;2022-11-15T08:33:29;10.20;99.90
54264;DHT22;40178;53.042;6.406;2022-11-15T08:35:59;10.20;99.90
54264;DHT22;40178;53.042;6.406;2022-11-15T08:38:25;10.30;99.90
54264;DHT22;40178;53.042;6.406;2022-11-15T08:40:53;10.40;99.90
54264;DHT22;40178;53.042;6.406;2022-11-15T08:43:23;10.30;99.90
54264;DHT22;40178;53.042;6.406;2022-11-15T08:45:49;10.30;99.90
54264;DHT22;40178;53.042;6.406;2022-11-15T08:48:14;10.50;99.90
54264;DHT22;40178;53.042;6.406;2022-11-15T08:50:40;10.60;99.90
54264;DHT22;40178;53.042;6.406;2022-11-15T08:53:07;10.60;99.90
54264;DHT22;40178;53.042;6.406;2022-11-15T08:55:36;10.60;99.90
54264;DHT22;40178;53.042;6.406;2022-11-15T08:58:02;10.60;99.90
54264;DHT22;40178;53.042;6.406;2022-11-15T09:00:29;10.40;99.90
54264;DHT22;40178;53.042;6.406;2022-11-15T09:02:55;10.70;99.90
54264;DHT22;40178;53.042;6.406;2022-11-15T09:05:20;10.70;99.90
54264;DHT22;40178;53.042;6.406;2022-11-15T09:07:46;10.60;99.90
54264;DHT22;40178;53.042;6.406;2022-11-15T09:10:11;10.80;99.90
54264;DHT22;40178;53.042;6.406;2022-11-15T09:12:37;10.70;99.90
54264;DHT22;40178;53.042;6.406;2022-11-15T09:15:04;10.90;99.90
54264;DHT22;40178;53.042;6.406;2022-11-15T09:17:30;10.70;99.90
54264;DHT22;40178;53.042;6.406;2022-11-15T09:19:56;10.90;99.90
54264;DHT22;40178;53.042;6.406;2022-11-15T09:22:21;10.90;99.90
54264;DHT22;40178;53.042;6.406;2022-11-15T09:24:47;10.90;99.90
54264;DHT22;40178;53.042;6.406;2022-11-15T09:27:12;10.80;99.90
54264;DHT22;40178;53.042;6.406;2022-11-15T09:29:38;11.00;99.90
54264;DHT22;40178;53.042;6.406;2022-11-15T09:32:04;11.00;99.90
54264;DHT22;40178;53.042;6.406;2022-11-15T09:34:30;11.00;99.90
54264;DHT22;40178;53.042;6.406;2022-11-15T09:36:55;11.10;99.90
54264;DHT22;40178;53.042;6.406;2022-11-15T09:39:21;11.10;99.90
54264;DHT22;40178;53.042;6.406;2022-11-15T09:42:16;11.00;99.90
54264;DHT22;40178;53.042;6.406;2022-11-15T09:45:07;11.10;99.90
54264;DHT22;40178;53.042;6.406;2022-11-15T09:48:00;11.00;99.90
54264;DHT22;40178;53.042;6.406;2022-11-15T09:50:49;11.00;99.90
54264;DHT22;40178;53.042;6.406;2022-11-15T09:53:43;11.00;99.90
54264;DHT22;40178;53.042;6.406;2022-11-15T09:56:22;11.10;99.90
54264;DHT22;40178;53.042;6.406;2022-11-15T09:59:07;11.10;99.90
54264;DHT22;40178;53.042;6.406;2022-11-15T10:04:37;11.00;99.90
54264;DHT22;40178;53.042;6.406;2022-11-15T10:12:48;11.30;99.90
54264;DHT22;40178;53.042;6.406;2022-11-15T10:15:17;11.20;99.90
54264;DHT22;40178;53.042;6.406;2022-11-15T10:18:16;11.20;99.90
54264;DHT22;40178;53.042;6.406;2022-11-15T10:20:55;11.30;99.90
54264;DHT22;40178;53.042;6.406;2022-11-15T10:23:23;11.40;99.90
54264;DHT22;40178;53.042;6.406;2022-11-15T10:25:52;11.40;99.90
54264;DHT22;40178;53.042;6.406;2022-11-15T10:28:28;11.50;99.90
54264;DHT22;40178;53.042;6.406;2022-11-15T10:30:59;11.50;99.90
54264;DHT22;40178;53.042;6.406;2022-11-15T10:33:36;11.50;99.90
54264;DHT22;40178;53.042;6.406;2022-11-15T10:41:31;11.60;99.90
54264;DHT22;40178;53.042;6.406;2022-11-15T10:44:22;11.60;99.90
54264;DHT22;40178;53.042;6.406;2022-11-15T10:49:25;11.60;99.90
54264;DHT22;40178;53.042;6.406;2022-11-15T10:51:54;11.70;99.90
54264;DHT22;40178;53.042;6.406;2022-11-15T10:55:03;11.70;99.90
54264;DHT22;40178;53.042;6.406;2022-11-15T10:57:22;11.70;99.90
54264;DHT22;40178;53.042;6.406;2022-11-15T10:59:55;11.70;99.90
54264;DHT22;40178;53.042;6.406;2022-11-15T11:02:39;11.70;99.90
54264;DHT22;40178;53.042;6.406;2022-11-15T11:05:35;11.80;99.90
54264;DHT22;40178;53.042;6.406;2022-11-15T11:10:37;11.80;99.90
54264;DHT22;40178;53.042;6.406;2022-11-15T11:13:34;11.90;99.90
54264;DHT22;40178;53.042;6.406;2022-11-15T11:16:20;11.90;99.90
54264;DHT22;40178;53.042;6.406;2022-11-15T11:18:49;11.90;99.90
54264;DHT22;40178;53.042;6.406;2022-11-15T11:24:12;12.10;99.90
54264;DHT22;40178;53.042;6.406;2022-11-15T11:38:17;12.30;99.90
54264;DHT22;40178;53.042;6.406;2022-11-15T11:44:02;12.30;99.90
54264;DHT22;40178;53.042;6.406;2022-11-15T11:46:45;12.20;99.90
54264;DHT22;40178;53.042;6.406;2022-11-15T11:52:11;12.10;99.90
54264;DHT22;40178;53.042;6.406;2022-11-15T11:54:59;12.20;99.90
54264;DHT22;40178;53.042;6.406;2022-11-15T12:00:33;12.10;99.90
54264;DHT22;40178;53.042;6.406;2022-11-15T12:03:15;12.10;99.90
54264;DHT22;40178;53.042;6.406;2022-11-15T12:05:50;12.10;99.90
54264;DHT22;40178;53.042;6.406;2022-11-15T12:08:22;12.00;99.90
54264;DHT22;40178;53.042;6.406;2022-11-15T12:10:59;11.90;99.90
54264;DHT22;40178;53.042;6.406;2022-11-15T12:13:26;11.80;99.90
54264;DHT22;40178;53.042;6.406;2022-11-15T12:18:29;11.80;99.90
54264;DHT22;40178;53.042;6.406;2022-11-15T12:21:07;11.70;99.90
54264;DHT22;40178;53.042;6.406;2022-11-15T12:23:46;11.70;99.90
54264;DHT22;40178;53.042;6.406;2022-11-15T12:26:17;11.70;99.90
54264;DHT22;40178;53.042;6.406;2022-11-15T12:34:02;11.80;99.90
54264;DHT22;40178;53.042;6.406;2022-11-15T12:36:41;11.80;99.90
54264;DHT22;40178;53.042;6.406;2022-11-15T12:39:09;11.80;99.90
54264;DHT22;40178;53.042;6.406;2022-11-15T12:41:43;11.80;99.90
54264;DHT22;40178;53.042;6.406;2022-11-15T12:44:56;12.00;99.90
54264;DHT22;40178;53.042;6.406;2022-11-15T12:47:02;12.10;99.90
54264;DHT22;40178;53.042;6.406;2022-11-15T13:02:25;12.20;99.90
54264;DHT22;40178;53.042;6.406;2022-11-15T13:04:54;12.30;99.90
54264;DHT22;40178;53.042;6.406;2022-11-15T13:10:28;12.40;99.90
54264;DHT22;40178;53.042;6.406;2022-11-15T13:15:45;12.40;99.90
54264;DHT22;40178;53.042;6.406;2022-11-15T13:20:56;12.40;99.90
54264;DHT22;40178;53.042;6.406;2022-11-15T13:23:22;12.40;99.90
54264;DHT22;40178;53.042;6.406;2022-11-15T13:28:45;12.30;99.90
54264;DHT22;40178;53.042;6.406;2022-11-15T13:31:36;12.20;99.90
54264;DHT22;40178;53.042;6.406;2022-11-15T13:34:29;12.20;99.90
54264;DHT22;40178;53.042;6.406;2022-11-15T13:36:58;12.10;99.90
54264;DHT22;40178;53.042;6.406;2022-11-15T13:41:52;12.00;99.90
54264;DHT22;40178;53.042;6.406;2022-11-15T13:44:27;12.00;99.90
54264;DHT22;40178;53.042;6.406;2022-11-15T13:47:13;12.00;99.90
54264;DHT22;40178;53.042;6.406;2022-11-15T13:49:39;12.00;99.90
54264;DHT22;40178;53.042;6.406;2022-11-15T13:52:07;12.00;99.90
54264;DHT22;40178;53.042;6.406;2022-11-15T13:54:37;11.90;99.90
54264;DHT22;40178;53.042;6.406;2022-11-15T13:57:08;11.90;99.90
54264;DHT22;40178;53.042;6.406;2022-11-15T13:59:44;11.90;99.90
54264;DHT22;40178;53.042;6.406;2022-11-15T14:02:17;11.90;99.90
54264;DHT22;40178;53.042;6.406;2022-11-15T14:04:51;11.90;99.90
54264;DHT22;40178;53.042;6.406;2022-11-15T14:07:20;11.80;99.20
54264;DHT22;40178;53.042;6.406;2022-11-15T14:09:47;11.80;99.90
54264;DHT22;40178;53.042;6.406;2022-11-15T14:12:25;11.80;99.90
54264;DHT22;40178;53.042;6.406;2022-11-15T14:14:50;11.70;99.90
54264;DHT22;40178;53.042;6.406;2022-11-15T14:17:33;11.70;99.90
54264;DHT22;40178;53.042;6.406;2022-11-15T14:19:59;11.60;99.90
54264;DHT22;40178;53.042;6.406;2022-11-15T14:22:27;11.50;99.90
54264;DHT22;40178;53.042;6.406;2022-11-15T14:27:39;11.50;99.90
54264;DHT22;40178;53.042;6.406;2022-11-15T14:30:04;11.40;99.90
54264;DHT22;40178;53.042;6.406;2022-11-15T14:32:45;11.40;99.90
54264;DHT22;40178;53.042;6.406;2022-11-15T14:35:20;11.40;99.90
54264;DHT22;40178;53.042;6.406;2022-11-15T14:37:47;11.30;98.80
54264;DHT22;40178;53.042;6.406;2022-11-15T14:40:14;11.30;99.90
54264;DHT22;40178;53.042;6.406;2022-11-15T14:42:41;11.20;99.90
54264;DHT22;40178;53.042;6.406;2022-11-15T14:45:19;11.20;99.90
54264;DHT22;40178;53.042;6.406;2022-11-15T14:47:48;11.10;99.90
54264;DHT22;40178;53.042;6.406;2022-11-15T14:53:26;11.00;99.30
54264;DHT22;40178;53.042;6.406;2022-11-15T15:00:01;10.90;97.50
54264;DHT22;40178;53.042;6.406;2022-11-15T15:03:14;11.30;98.00
54264;DHT22;40178;53.042;6.406;2022-11-15T15:05:42;10.80;97.00
54264;DHT22;40178;53.042;6.406;2022-11-15T15:08:08;10.80;98.40
54264;DHT22;40178;53.042;6.406;2022-11-15T15:10:43;10.80;98.70
54264;DHT22;40178;53.042;6.406;2022-11-15T15:13:17;10.80;99.00
54264;DHT22;40178;53.042;6.406;2022-11-15T15:15:43;10.70;99.90
54264;DHT22;40178;53.042;6.406;2022-11-15T15:18:09;10.70;99.90
54264;DHT22;40178;53.042;6.406;2022-11-15T15:20:38;10.70;99.70
54264;DHT22;40178;53.042;6.406;2022-11-15T15:23:04;10.70;99.90
54264;DHT22;40178;53.042;6.406;2022-11-15T15:25:32;10.70;99.90
54264;DHT22;40178;53.042;6.406;2022-11-15T15:27:58;10.60;99.90
54264;DHT22;40178;53.042;6.406;2022-11-15T15:30:25;10.60;99.90
54264;DHT22;40178;53.042;6.406;2022-11-15T15:32:51;10.70;99.90
54264;DHT22;40178;53.042;6.406;2022-11-15T15:35:17;10.70;99.90
54264;DHT22;40178;53.042;6.406;2022-11-15T15:37:44;10.70;99.90
54264;DHT22;40178;53.042;6.406;2022-11-15T15:40:22;10.70;99.90
54264;DHT22;40178;53.042;6.406;2022-11-15T15:42:48;10.70;99.90
54264;DHT22;40178;53.042;6.406;2022-11-15T15:45:15;10.60;99.90
54264;DHT22;40178;53.042;6.406;2022-11-15T15:47:42;10.60;99.90
54264;DHT22;40178;53.042;6.406;2022-11-15T15:50:36;10.50;99.90
54264;DHT22;40178;53.042;6.406;2022-11-15T15:53:03;10.50;99.90
54264;DHT22;40178;53.042;6.406;2022-11-15T15:55:30;10.50;99.90
54264;DHT22;40178;53.042;6.406;2022-11-15T15:57:55;10.50;99.90
54264;DHT22;40178;53.042;6.406;2022-11-15T16:00:22;10.40;99.90
54264;DHT22;40178;53.042;6.406;2022-11-15T16:02:49;10.40;99.90
54264;DHT22;40178;53.042;6.406;2022-11-15T16:05:14;10.40;99.90
54264;DHT22;40178;53.042;6.406;2022-11-15T16:07:40;10.40;99.90
54264;DHT22;40178;53.042;6.406;2022-11-15T16:12:50;10.40;99.90
54264;DHT22;40178;53.042;6.406;2022-11-15T16:15:17;10.30;99.90
54264;DHT22;40178;53.042;6.406;2022-11-15T16:17:54;10.30;99.90
54264;DHT22;40178;53.042;6.406;2022-11-15T16:20:42;10.20;99.90
54264;DHT22;40178;53.042;6.406;2022-11-15T16:23:16;10.20;99.90
54264;DHT22;40178;53.042;6.406;2022-11-15T16:25:46;10.30;99.90
54264;DHT22;40178;53.042;6.406;2022-11-15T16:28:20;10.30;99.90
54264;DHT22;40178;53.042;6.406;2022-11-15T16:30:46;10.20;99.90
54264;DHT22;40178;53.042;6.406;2022-11-15T16:33:12;10.30;99.90
54264;DHT22;40178;53.042;6.406;2022-11-15T16:35:38;10.30;99.90
54264;DHT22;40178;53.042;6.406;2022-11-15T16:38:03;10.30;99.90
54264;DHT22;40178;53.042;6.406;2022-11-15T16:40:31;10.40;99.90
54264;DHT22;40178;53.042;6.406;2022-11-15T16:42:57;10.40;99.90
54264;DHT22;40178;53.042;6.406;2022-11-15T16:45:24;10.50;99.70
54264;DHT22;40178;53.042;6.406;2022-11-15T16:47:52;10.50;99.40
54264;DHT22;40178;53.042;6.406;2022-11-15T16:50:20;10.50;99.90
54264;DHT22;40178;53.042;6.406;2022-11-15T16:52:52;10.50;99.20
54264;DHT22;40178;53.042;6.406;2022-11-15T16:55:18;10.60;95.90
54264;DHT22;40178;53.042;6.406;2022-11-15T16:57:44;10.60;99.90
54264;DHT22;40178;53.042;6.406;2022-11-15T17:00:11;10.60;97.80
54264;DHT22;40178;53.042;6.406;2022-11-15T17:02:38;10.60;98.90
54264;DHT22;40178;53.042;6.406;2022-11-15T17:05:03;10.60;95.50
54264;DHT22;40178;53.042;6.406;2022-11-15T17:07:29;10.60;99.30
54264;DHT22;40178;53.042;6.406;2022-11-15T17:09:54;10.70;93.30
54264;DHT22;40178;53.042;6.406;2022-11-15T17:12:20;10.70;88.60
54264;DHT22;40178;53.042;6.406;2022-11-15T17:14:46;10.70;94.30
54264;DHT22;40178;53.042;6.406;2022-11-15T17:17:11;10.70;93.10
54264;DHT22;40178;53.042;6.406;2022-11-15T17:19:37;10.70;90.70
54264;DHT22;40178;53.042;6.406;2022-11-15T17:22:02;10.70;94.30
54264;DHT22;40178;53.042;6.406;2022-11-15T17:24:28;10.70;92.20
54264;DHT22;40178;53.042;6.406;2022-11-15T17:26:53;10.80;90.50
54264;DHT22;40178;53.042;6.406;2022-11-15T17:29:19;10.70;92.20
54264;DHT22;40178;53.042;6.406;2022-11-15T17:31:44;10.80;93.50
54264;DHT22;40178;53.042;6.406;2022-11-15T17:34:10;10.80;90.70
54264;DHT22;40178;53.042;6.406;2022-11-15T17:36:36;10.80;71.30
54264;DHT22;40178;53.042;6.406;2022-11-15T17:39:02;10.80;81.60
54264;DHT22;40178;53.042;6.406;2022-11-15T17:41:28;10.80;77.00
54264;DHT22;40178;53.042;6.406;2022-11-15T17:43:58;10.90;80.00
54264;DHT22;40178;53.042;6.406;2022-11-15T17:46:25;10.90;79.80
54264;DHT22;40178;53.042;6.406;2022-11-15T17:48:50;11.00;59.80